Time;durP1;ratioP1;P1;durP2;ratioP2;P2;SDS_P1;SDS_P2;PMS_P1;PMS_P2;Temp;Humidity;BMP_temperature;BMP_pressure;BME280_temperature;BME280_humidity;BME280_pressure;Samples;Min_cycle;Max_cycle;Signal;HPM_P1;HPM_P2
2021/07/04 00:00:17;;;;;;;7.17;6.10;;;21.50;99.90;;;;;;5137504;27;20523;-68
2021/07/04 00:02:43;;;;;;;7.40;6.03;;;21.50;99.90;;;;;;5119352;27;20419;-66
2021/07/04 00:05:11;;;;;;;7.03;6.30;;;21.40;99.90;;;;;;5137539;27;20447;-68
2021/07/04 00:07:41;;;;;;;7.40;6.60;;;21.40;99.90;;;;;;5119164;27;20772;-68
2021/07/04 00:10:09;;;;;;;6.20;5.60;;;21.30;99.90;;;;;;5137450;27;20817;-68
2021/07/04 00:12:35;;;;;;;7.67;5.93;;;21.20;99.90;;;;;;5119069;27;20459;-65
2021/07/04 00:15:01;;;;;;;7.27;6.23;;;21.20;99.90;;;;;;5136708;27;20407;-68
2021/07/04 00:17:27;;;;;;;6.93;5.97;;;21.10;99.90;;;;;;5137319;27;20469;-68
2021/07/04 00:19:53;;;;;;;7.70;6.43;;;21.10;99.90;;;;;;5137193;27;20407;-68
2021/07/04 00:22:18;;;;;;;7.70;6.90;;;21.00;99.90;;;;;;5137395;27;20220;-68
2021/07/04 00:24:44;;;;;;;7.00;6.30;;;21.00;99.90;;;;;;5137139;27;20209;-68
2021/07/04 00:27:09;;;;;;;7.10;6.23;;;21.00;99.90;;;;;;5137216;27;20178;-68
2021/07/04 00:29:35;;;;;;;9.83;7.10;;;21.00;99.90;;;;;;5118838;27;20186;-66
2021/07/04 00:32:00;;;;;;;7.07;6.23;;;21.00;99.90;;;;;;5137512;27;20198;-66
2021/07/04 00:34:26;;;;;;;8.33;7.10;;;20.90;99.90;;;;;;5118754;27;20209;-68
2021/07/04 00:36:52;;;;;;;7.27;6.40;;;20.80;99.90;;;;;;5137434;27;20211;-68
2021/07/04 00:39:17;;;;;;;7.37;6.47;;;20.70;99.90;;;;;;5137078;27;20186;-68
2021/07/04 00:41:43;;;;;;;7.70;7.00;;;20.70;99.90;;;;;;5137395;27;20206;-66
2021/07/04 00:44:08;;;;;;;6.97;6.27;;;20.70;99.90;;;;;;5136853;27;20175;-65
2021/07/04 00:46:34;;;;;;;7.73;6.33;;;20.70;99.90;;;;;;5137127;27;20209;-66
2021/07/04 00:49:01;;;;;;;8.40;7.60;;;20.60;99.90;;;;;;5118336;27;20175;-67
2021/07/04 00:51:27;;;;;;;7.40;6.60;;;20.60;99.90;;;;;;5137166;27;20288;-68
2021/07/04 00:53:53;;;;;;;7.43;6.73;;;20.50;99.90;;;;;;5136522;27;20834;-67
2021/07/04 00:56:19;;;;;;;10.60;7.30;;;20.50;99.90;;;;;;5118236;27;20478;-67
2021/07/04 00:58:45;;;;;;;7.60;6.90;;;20.50;99.90;;;;;;5136584;27;20755;-65
2021/07/04 01:01:10;;;;;;;6.77;5.80;;;20.50;99.90;;;;;;5136773;27;20202;-66
2021/07/04 01:03:36;;;;;;;9.13;6.93;;;20.50;99.90;;;;;;5136580;27;20169;-66
2021/07/04 01:06:01;;;;;;;7.37;6.60;;;20.40;99.90;;;;;;5136263;27;20702;-68
2021/07/04 01:08:27;;;;;;;8.33;6.60;;;20.40;99.90;;;;;;5118012;27;20182;-67
2021/07/04 01:10:53;;;;;;;8.13;7.13;;;20.40;99.90;;;;;;5136543;27;20198;-67
2021/07/04 01:13:18;;;;;;;7.63;6.27;;;20.30;99.90;;;;;;5136412;27;20174;-68
2021/07/04 01:15:45;;;;;;;8.47;7.67;;;20.30;99.90;;;;;;5136257;27;20322;-67
2021/07/04 01:18:11;;;;;;;7.80;7.00;;;20.30;99.90;;;;;;5117758;27;20178;-66
2021/07/04 01:20:38;;;;;;;8.33;7.17;;;20.20;99.90;;;;;;5136175;27;20441;-66
2021/07/04 01:23:12;;;;;;;7.80;6.90;;;20.10;99.90;;;;;;5136102;27;20422;-66
2021/07/04 01:25:45;;;;;;;8.07;6.87;;;20.10;99.90;;;;;;5116696;28;20453;-67
2021/07/04 01:28:11;;;;;;;11.03;6.93;;;19.90;99.90;;;;;;5117603;27;20414;-66
2021/07/04 01:30:36;;;;;;;9.37;7.00;;;19.90;99.90;;;;;;5117462;27;20451;-68
2021/07/04 01:33:02;;;;;;;7.80;6.97;;;19.80;99.90;;;;;;5136107;27;20457;-66
2021/07/04 01:35:28;;;;;;;8.90;7.53;;;19.70;99.90;;;;;;5135811;27;20203;-68
2021/07/04 01:37:54;;;;;;;8.50;7.37;;;19.70;99.90;;;;;;5135858;27;20217;-66
2021/07/04 01:40:20;;;;;;;10.37;6.53;;;19.60;99.90;;;;;;5117422;27;20253;-65
2021/07/04 01:42:46;;;;;;;8.63;7.00;;;19.50;99.90;;;;;;5135798;27;20652;-66
2021/07/04 01:45:14;;;;;;;8.13;6.30;;;19.50;99.90;;;;;;5117202;27;20200;-67
2021/07/04 01:47:42;;;;;;;7.43;6.60;;;19.50;99.90;;;;;;5117308;27;20991;-67
2021/07/04 01:50:15;;;;;;;9.87;7.30;;;19.50;99.90;;;;;;5135514;27;20442;-66
2021/07/04 01:52:41;;;;;;;7.60;6.53;;;19.50;99.90;;;;;;5135634;27;20497;-67
2021/07/04 01:55:08;;;;;;;8.60;6.33;;;19.50;99.90;;;;;;5135268;27;21036;-67
2021/07/04 01:57:35;;;;;;;10.83;7.60;;;19.50;99.90;;;;;;5135257;27;20227;-66
2021/07/04 02:00:13;;;;;;;6.73;5.97;;;19.50;99.90;;;;;;5135350;27;20498;-67
2021/07/04 02:02:39;;;;;;;7.93;7.13;;;19.40;99.90;;;;;;5117067;27;20421;-68
2021/07/04 02:05:06;;;;;;;8.67;7.87;;;19.40;99.90;;;;;;5116746;27;20440;-68
2021/07/04 02:07:32;;;;;;;7.90;7.10;;;19.40;99.90;;;;;;5135383;27;20414;-66
2021/07/04 02:09:57;;;;;;;9.20;7.10;;;19.40;99.90;;;;;;5116759;27;20989;-66
2021/07/04 02:12:23;;;;;;;9.40;7.27;;;19.40;99.90;;;;;;5135357;27;20192;-67
2021/07/04 02:14:48;;;;;;;8.93;8.10;;;19.40;99.90;;;;;;5134997;27;20196;-66
2021/07/04 02:17:14;;;;;;;7.40;6.70;;;19.40;99.90;;;;;;5135156;27;20247;-66
2021/07/04 02:19:41;;;;;;;8.10;7.30;;;19.40;99.90;;;;;;5135015;27;20182;-66
2021/07/04 02:22:08;;;;;;;9.57;7.80;;;19.40;99.90;;;;;;5135295;27;20582;-68
2021/07/04 02:24:34;;;;;;;9.87;7.90;;;19.40;99.90;;;;;;5135040;27;20421;-67
2021/07/04 02:27:01;;;;;;;10.53;7.93;;;19.40;99.90;;;;;;5116703;27;20453;-67
2021/07/04 02:29:27;;;;;;;9.80;6.93;;;19.40;99.90;;;;;;5116613;27;20421;-67
2021/07/04 02:31:53;;;;;;;10.03;7.80;;;19.40;99.90;;;;;;5135352;27;20458;-67
2021/07/04 02:34:18;;;;;;;8.77;7.87;;;19.40;99.90;;;;;;5116560;27;20432;-67
2021/07/04 02:36:44;;;;;;;9.60;7.33;;;19.40;99.90;;;;;;5134962;27;20222;-66
2021/07/04 02:39:13;;;;;;;10.93;7.70;;;19.40;99.90;;;;;;5134807;27;20165;-66
2021/07/04 02:41:39;;;;;;;8.43;7.53;;;19.30;99.90;;;;;;5135150;27;20277;-66
2021/07/04 02:44:05;;;;;;;7.70;6.90;;;19.30;99.90;;;;;;5134691;27;20427;-67
2021/07/04 02:46:31;;;;;;;9.47;7.10;;;19.30;99.90;;;;;;5135005;27;20440;-67
2021/07/04 02:48:57;;;;;;;8.73;7.60;;;19.30;99.90;;;;;;5116352;27;20948;-66
2021/07/04 02:51:23;;;;;;;7.37;6.20;;;19.30;99.90;;;;;;5134997;27;20447;-67
2021/07/04 02:53:48;;;;;;;15.30;8.17;;;19.30;99.90;;;;;;5134479;28;20409;-68
2021/07/04 02:56:14;;;;;;;10.53;7.67;;;19.30;99.90;;;;;;5134888;27;20221;-67
2021/07/04 02:58:40;;;;;;;8.43;7.53;;;19.30;99.90;;;;;;5116303;28;20175;-65
2021/07/04 03:01:05;;;;;;;8.73;7.20;;;19.30;99.90;;;;;;5134418;27;20298;-65
2021/07/04 03:03:31;;;;;;;8.10;7.33;;;19.20;99.90;;;;;;5134720;28;20255;-68
2021/07/04 03:05:57;;;;;;;13.40;8.40;;;19.20;99.90;;;;;;5116113;28;20204;-67
2021/07/04 03:08:22;;;;;;;11.23;7.27;;;19.20;99.90;;;;;;5134612;28;20198;-66
2021/07/04 03:10:49;;;;;;;11.00;7.80;;;19.20;99.90;;;;;;5134579;27;20205;-67
2021/07/04 03:13:14;;;;;;;9.70;7.23;;;19.10;99.90;;;;;;5116038;28;20182;-68
2021/07/04 03:15:40;;;;;;;8.77;7.87;;;19.10;99.90;;;;;;5134557;27;20947;-67
2021/07/04 03:18:06;;;;;;;8.27;7.47;;;19.20;99.90;;;;;;5134439;28;20621;-67
2021/07/04 03:20:31;;;;;;;8.43;7.60;;;19.20;99.90;;;;;;5134560;27;20191;-67
2021/07/04 03:22:57;;;;;;;8.70;7.23;;;19.20;99.90;;;;;;5134383;28;20258;-65
2021/07/04 03:25:22;;;;;;;8.67;7.67;;;19.20;99.90;;;;;;5134377;27;20200;-66
2021/07/04 03:27:48;;;;;;;9.97;7.37;;;19.20;99.90;;;;;;5134477;28;20179;-66
2021/07/04 03:30:19;;;;;;;9.50;7.50;;;19.20;99.90;;;;;;5134310;27;20204;-68
2021/07/04 03:32:47;;;;;;;8.87;7.73;;;19.20;99.90;;;;;;5134413;28;20158;-66
2021/07/04 03:35:14;;;;;;;8.50;7.60;;;19.20;99.90;;;;;;5134105;27;20446;-66
2021/07/04 03:37:40;;;;;;;9.10;7.40;;;19.20;99.90;;;;;;5115879;28;20418;-66
2021/07/04 03:40:08;;;;;;;9.10;7.70;;;19.10;99.90;;;;;;5134157;27;20443;-68
2021/07/04 03:42:33;;;;;;;10.13;8.10;;;19.10;99.90;;;;;;5115865;28;20415;-66
2021/07/04 03:44:59;;;;;;;9.90;8.67;;;19.10;99.90;;;;;;5133171;28;20488;-66
2021/07/04 03:47:26;;;;;;;9.53;7.53;;;19.10;99.90;;;;;;5133429;28;20207;-69
2021/07/04 03:49:55;;;;;;;10.77;7.90;;;19.20;99.90;;;;;;5135044;27;20168;-65
2021/07/04 03:52:21;;;;;;;8.97;7.40;;;19.20;99.90;;;;;;5137702;27;20392;-65
2021/07/04 03:54:48;;;;;;;9.30;7.60;;;19.20;99.90;;;;;;5137444;27;20450;-67
2021/07/04 03:57:24;;;;;;;9.87;7.87;;;19.20;99.90;;;;;;5119230;27;20463;-66
2021/07/04 03:59:54;;;;;;;9.13;7.53;;;19.30;99.90;;;;;;5137694;27;20437;-67
2021/07/04 04:02:21;;;;;;;10.03;8.20;;;19.30;99.90;;;;;;5137837;27;20412;-67
2021/07/04 04:04:46;;;;;;;9.50;7.60;;;19.40;99.90;;;;;;5137635;27;20393;-67
2021/07/04 04:07:12;;;;;;;9.90;8.07;;;19.40;99.90;;;;;;5137664;27;20411;-68
2021/07/04 04:09:38;;;;;;;10.50;8.10;;;19.40;99.90;;;;;;5137561;27;20171;-68
2021/07/04 04:12:04;;;;;;;10.90;8.57;;;19.40;99.90;;;;;;5119072;27;20581;-67
2021/07/04 04:14:31;;;;;;;9.30;7.53;;;19.50;99.90;;;;;;5119102;27;20171;-65
2021/07/04 04:16:56;;;;;;;10.00;7.90;;;19.50;99.90;;;;;;5137819;27;20948;-65
2021/07/04 04:19:22;;;;;;;9.43;8.23;;;19.50;99.90;;;;;;5118993;27;20456;-68
2021/07/04 04:21:47;;;;;;;9.20;8.00;;;19.60;99.90;;;;;;5137754;27;20208;-68
2021/07/04 04:24:13;;;;;;;9.40;7.77;;;19.60;99.90;;;;;;5137285;27;20167;-67
2021/07/04 04:26:39;;;;;;;11.90;8.53;;;19.70;99.90;;;;;;5118979;27;20664;-67
2021/07/04 04:29:05;;;;;;;9.27;7.97;;;19.70;99.90;;;;;;5137229;27;20169;-66
2021/07/04 04:31:30;;;;;;;15.80;8.00;;;19.70;99.90;;;;;;5137512;27;20989;-66
2021/07/04 04:33:56;;;;;;;10.27;7.57;;;19.80;99.90;;;;;;5137179;27;20592;-68
2021/07/04 04:36:21;;;;;;;8.00;7.20;;;19.90;99.90;;;;;;5118674;27;20221;-67
2021/07/04 04:38:47;;;;;;;9.70;8.30;;;19.90;99.90;;;;;;5137108;27;20178;-66
2021/07/04 04:41:15;;;;;;;9.47;8.40;;;20.00;99.90;;;;;;5137211;27;20192;-65
2021/07/04 04:43:41;;;;;;;8.40;7.07;;;20.10;99.90;;;;;;5137047;27;20262;-66
2021/07/04 04:46:07;;;;;;;12.93;7.90;;;20.10;99.90;;;;;;5136706;27;20474;-68
2021/07/04 04:48:32;;;;;;;9.67;8.20;;;20.20;99.90;;;;;;5136750;27;20181;-66
2021/07/04 04:50:58;;;;;;;11.53;8.43;;;20.20;99.90;;;;;;5137044;27;20262;-66
2021/07/04 04:53:24;;;;;;;10.23;7.60;;;20.30;99.90;;;;;;5136868;27;20181;-67
2021/07/04 04:55:49;;;;;;;8.67;7.57;;;20.40;99.90;;;;;;5136747;27;20238;-68
2021/07/04 04:58:15;;;;;;;9.10;7.33;;;20.40;99.90;;;;;;5136704;27;20170;-69
2021/07/04 05:00:40;;;;;;;8.90;7.97;;;20.50;99.90;;;;;;5136443;27;20281;-66
2021/07/04 05:03:06;;;;;;;9.50;7.10;;;20.60;99.90;;;;;;5136563;27;20166;-69
2021/07/04 05:05:34;;;;;;;9.43;7.30;;;20.60;99.90;;;;;;5118121;27;20293;-66
2021/07/04 05:07:59;;;;;;;8.77;7.90;;;20.70;99.90;;;;;;5136391;27;20400;-68
2021/07/04 05:10:25;;;;;;;8.47;7.40;;;20.80;99.90;;;;;;5136441;27;20870;-68
2021/07/04 05:12:50;;;;;;;10.23;7.70;;;20.90;99.90;;;;;;5136453;27;20181;-68
2021/07/04 05:15:16;;;;;;;7.60;6.80;;;20.90;99.90;;;;;;5117938;27;20235;-68
2021/07/04 05:17:42;;;;;;;8.17;6.83;;;21.00;99.90;;;;;;5136200;27;20210;-68
2021/07/04 05:20:08;;;;;;;8.30;7.40;;;21.10;99.90;;;;;;5117641;27;20578;-67
2021/07/04 05:22:34;;;;;;;11.70;7.97;;;21.10;99.90;;;;;;5136127;27;20632;-68
2021/07/04 05:25:01;;;;;;;11.57;7.10;;;21.20;99.90;;;;;;5117694;27;20456;-66
2021/07/04 05:27:26;;;;;;;9.90;7.80;;;21.30;99.90;;;;;;5136087;27;20399;-66
2021/07/04 05:29:52;;;;;;;8.03;7.23;;;21.40;99.90;;;;;;5136019;27;20926;-67
2021/07/04 05:32:18;;;;;;;8.40;7.23;;;21.40;99.90;;;;;;5136054;27;20650;-65
2021/07/04 05:34:43;;;;;;;9.63;7.60;;;21.50;99.90;;;;;;5117409;27;20181;-69
2021/07/04 05:37:09;;;;;;;8.60;7.50;;;21.60;99.90;;;;;;5117475;27;20288;-68
2021/07/04 05:39:35;;;;;;;10.23;7.77;;;21.70;99.90;;;;;;5117402;27;20185;-68
2021/07/04 05:42:01;;;;;;;10.80;8.33;;;21.80;99.90;;;;;;5117515;27;20468;-68
2021/07/04 05:44:26;;;;;;;9.30;7.27;;;21.90;99.90;;;;;;5135885;27;20188;-67
2021/07/04 05:46:52;;;;;;;9.93;7.97;;;22.00;99.90;;;;;;5136041;27;20579;-66
2021/07/04 05:49:18;;;;;;;11.90;8.47;;;22.00;99.90;;;;;;5135710;27;20171;-67
2021/07/04 05:51:44;;;;;;;8.23;7.40;;;22.10;99.90;;;;;;5117241;27;20234;-66
2021/07/04 05:54:10;;;;;;;11.93;7.93;;;22.20;99.90;;;;;;5135166;27;20264;-68
2021/07/04 05:56:37;;;;;;;8.50;7.70;;;22.30;99.90;;;;;;5135386;27;20478;-68
2021/07/04 05:59:04;;;;;;;8.83;7.57;;;22.40;99.90;;;;;;5117299;27;20443;-68
2021/07/04 06:01:30;;;;;;;9.30;7.70;;;22.50;99.90;;;;;;5135654;27;20541;-66
2021/07/04 06:03:55;;;;;;;8.77;6.57;;;22.50;99.90;;;;;;5135365;27;20443;-66
2021/07/04 06:06:21;;;;;;;8.83;7.50;;;22.60;99.90;;;;;;5117028;27;20840;-68
2021/07/04 06:08:47;;;;;;;9.30;8.30;;;22.70;99.90;;;;;;5135367;27;20632;-66
2021/07/04 06:11:12;;;;;;;11.27;7.00;;;22.80;99.90;;;;;;5135435;27;20194;-68
2021/07/04 06:13:38;;;;;;;8.30;7.50;;;22.80;99.90;;;;;;5116480;27;20628;-68
2021/07/04 06:16:04;;;;;;;8.93;7.20;;;22.90;99.90;;;;;;5116664;27;20223;-69
2021/07/04 06:18:29;;;;;;;7.60;6.80;;;23.00;99.90;;;;;;5135228;27;20659;-68
2021/07/04 06:20:55;;;;;;;9.03;6.90;;;23.10;99.90;;;;;;5135243;27;20431;-66
2021/07/04 06:23:21;;;;;;;8.63;7.20;;;23.10;99.90;;;;;;5135072;27;20203;-68
2021/07/04 06:25:47;;;;;;;7.23;6.53;;;23.20;99.90;;;;;;5116546;27;20195;-69
2021/07/04 06:28:13;;;;;;;9.17;7.53;;;23.30;99.90;;;;;;5135080;27;20414;-67
2021/07/04 06:30:38;;;;;;;7.83;6.70;;;23.40;99.90;;;;;;5116661;27;20200;-66
2021/07/04 06:33:04;;;;;;;8.50;6.67;;;23.50;99.90;;;;;;5134938;27;20408;-68
2021/07/04 06:35:30;;;;;;;6.93;6.23;;;23.50;99.90;;;;;;5134781;27;20192;-68
2021/07/04 06:37:56;;;;;;;8.13;7.33;;;23.60;99.90;;;;;;5134860;27;20642;-68
2021/07/04 06:40:22;;;;;;;7.47;6.70;;;23.70;99.90;;;;;;5134867;27;20274;-68
2021/07/04 06:42:47;;;;;;;7.20;6.50;;;23.80;99.90;;;;;;5116387;27;20176;-67
2021/07/04 06:45:13;;;;;;;7.43;6.07;;;23.90;99.90;;;;;;5116419;27;20431;-66
2021/07/04 06:47:44;;;;;;;11.80;7.50;;;24.00;99.90;;;;;;5134876;27;20171;-68
2021/07/04 06:50:12;;;;;;;7.03;6.33;;;24.10;99.90;;;;;;5134685;27;20431;-66
2021/07/04 06:52:38;;;;;;;7.20;6.50;;;24.10;99.90;;;;;;5116295;28;20415;-68
2021/07/04 06:55:05;;;;;;;6.23;5.63;;;24.20;99.90;;;;;;5112680;28;20474;-66
2021/07/04 06:57:31;;;;;;;7.37;6.33;;;24.30;99.90;;;;;;5114045;28;20467;-68
2021/07/04 06:59:59;;;;;;;6.03;5.43;;;24.30;99.90;;;;;;5113891;28;20765;-68
2021/07/04 07:02:25;;;;;;;6.60;5.43;;;24.40;99.90;;;;;;5114149;28;20410;-68
2021/07/04 07:04:52;;;;;;;6.67;6.07;;;24.50;99.90;;;;;;5113921;28;20404;-68
2021/07/04 07:07:19;;;;;;;7.67;5.80;;;24.60;99.90;;;;;;5114010;28;20409;-66
2021/07/04 07:09:45;;;;;;;5.73;5.23;;;24.60;99.90;;;;;;5112512;28;20434;-66
2021/07/04 07:12:10;;;;;;;6.17;5.37;;;24.70;99.90;;;;;;5113911;28;20401;-68
2021/07/04 07:14:36;;;;;;;6.20;5.60;;;24.70;99.90;;;;;;5114044;28;20221;-67
2021/07/04 07:17:02;;;;;;;6.53;5.73;;;24.80;99.90;;;;;;5114253;28;20214;-66
2021/07/04 07:19:27;;;;;;;8.00;5.60;;;24.90;99.90;;;;;;5113893;28;20213;-66
2021/07/04 07:21:53;;;;;;;8.93;5.40;;;25.00;99.90;;;;;;5112726;28;20282;-66
2021/07/04 07:24:19;;;;;;;5.80;5.30;;;25.00;99.90;;;;;;5115080;28;20186;-66
2021/07/04 07:26:44;;;;;;;7.03;6.33;;;25.10;99.90;;;;;;5118255;28;20182;-66
2021/07/04 07:29:10;;;;;;;5.33;4.93;;;25.20;99.90;;;;;;5117866;28;20187;-69
2021/07/04 07:31:36;;;;;;;5.90;5.40;;;25.30;99.90;;;;;;5118202;28;20206;-66
2021/07/04 07:34:03;;;;;;;5.70;5.20;;;25.30;99.90;;;;;;5117791;28;20315;-68
2021/07/04 07:36:29;;;;;;;6.53;5.93;;;25.40;99.90;;;;;;5117972;28;20466;-66
2021/07/04 07:38:55;;;;;;;5.77;5.27;;;25.50;99.90;;;;;;5117618;28;20429;-68
2021/07/04 07:41:20;;;;;;;6.30;5.70;;;25.60;99.90;;;;;;5117930;28;20420;-68
2021/07/04 07:43:47;;;;;;;6.33;5.73;;;25.60;99.90;;;;;;5117666;28;20218;-67
2021/07/04 07:46:13;;;;;;;5.80;5.30;;;25.70;99.90;;;;;;5117752;28;20266;-66
2021/07/04 07:48:39;;;;;;;6.60;6.00;;;25.80;99.90;;;;;;5117647;28;20415;-66
2021/07/04 07:51:05;;;;;;;5.87;5.37;;;25.90;99.90;;;;;;5117677;28;20431;-68
2021/07/04 07:53:31;;;;;;;5.80;5.30;;;25.90;99.90;;;;;;5116185;28;20555;-68
2021/07/04 07:55:56;;;;;;;5.97;5.47;;;26.00;99.90;;;;;;5115749;28;20318;-69
2021/07/04 07:58:22;;;;;;;7.17;5.57;;;26.10;99.90;;;;;;5117366;28;20976;-69
2021/07/04 08:00:48;;;;;;;6.50;5.80;;;26.10;99.90;;;;;;5117409;28;20286;-68
2021/07/04 08:03:14;;;;;;;6.63;6.00;;;26.20;99.90;;;;;;5117261;28;20558;-66
2021/07/04 08:05:40;;;;;;;6.63;5.93;;;26.20;99.90;;;;;;5117044;28;20191;-68
2021/07/04 08:08:06;;;;;;;6.00;5.40;;;26.30;99.90;;;;;;5117094;28;20453;-66
2021/07/04 08:10:32;;;;;;;5.40;4.90;;;26.30;99.90;;;;;;5115822;28;20558;-68
2021/07/04 08:12:57;;;;;;;5.60;5.10;;;26.40;99.90;;;;;;5115764;28;20541;-67
2021/07/04 08:15:23;;;;;;;7.33;5.53;;;26.40;99.90;;;;;;5117030;28;20188;-66
2021/07/04 08:17:50;;;;;;;5.93;5.40;;;26.50;99.90;;;;;;5116924;28;20206;-66
2021/07/04 08:20:16;;;;;;;6.37;5.83;;;26.50;99.90;;;;;;5116927;28;20530;-66
2021/07/04 08:22:42;;;;;;;5.87;5.37;;;26.60;99.70;;;;;;5116859;28;20402;-68
2021/07/04 08:25:09;;;;;;;5.37;4.87;;;26.60;99.80;;;;;;5116741;28;20534;-68
2021/07/04 08:27:35;;;;;;;6.10;5.50;;;26.70;99.80;;;;;;5116748;28;20408;-67
2021/07/04 08:30:01;;;;;;;5.57;4.93;;;26.80;99.90;;;;;;5115306;28;20527;-68
2021/07/04 08:32:27;;;;;;;8.63;5.97;;;26.80;99.50;;;;;;5114739;28;20180;-68
2021/07/04 08:34:52;;;;;;;5.87;5.30;;;26.90;99.70;;;;;;5115542;28;20408;-66
2021/07/04 08:37:18;;;;;;;6.10;5.50;;;27.00;99.00;;;;;;5114600;28;20222;-69
2021/07/04 08:39:43;;;;;;;6.00;5.40;;;27.10;98.90;;;;;;5114214;28;20233;-66
2021/07/04 08:42:09;;;;;;;5.70;5.20;;;27.10;98.30;;;;;;5113016;28;20179;-70
2021/07/04 08:44:35;;;;;;;6.03;5.43;;;27.20;98.20;;;;;;5114374;28;20705;-68
2021/07/04 08:47:01;;;;;;;5.63;5.13;;;27.20;98.10;;;;;;5114613;28;20195;-68
2021/07/04 08:49:27;;;;;;;6.60;5.70;;;27.30;98.00;;;;;;5114292;28;20255;-67
2021/07/04 08:51:53;;;;;;;5.90;5.30;;;27.30;98.10;;;;;;5113371;28;20590;-68
2021/07/04 08:54:18;;;;;;;6.10;5.00;;;27.30;97.60;;;;;;5114638;28;20377;-69
2021/07/04 08:56:48;;;;;;;5.50;5.00;;;27.40;97.00;;;;;;5114876;28;20223;-67
2021/07/04 08:59:13;;;;;;;6.40;5.80;;;27.50;96.80;;;;;;5114938;28;20180;-69
2021/07/04 09:01:46;;;;;;;6.17;5.57;;;27.60;97.00;;;;;;5116502;28;20998;-66
2021/07/04 09:04:21;;;;;;;5.30;4.90;;;27.60;96.30;;;;;;5116115;28;20633;-69
2021/07/04 09:06:48;;;;;;;8.70;5.37;;;27.70;96.50;;;;;;5116466;28;20424;-66
2021/07/04 09:09:15;;;;;;;5.80;5.30;;;27.80;96.80;;;;;;5115998;28;20414;-66
2021/07/04 09:12:11;;;;;;;5.03;4.53;;;27.90;96.50;;;;;;5115753;28;20531;-67
2021/07/04 09:14:39;;;;;;;6.60;5.10;;;27.90;96.10;;;;;;5098987;28;20432;-69
2021/07/04 09:17:10;;;;;;;6.03;5.53;;;28.00;95.50;;;;;;5115600;28;20471;-69
2021/07/04 09:19:40;;;;;;;5.10;4.63;;;28.10;95.10;;;;;;5115794;28;20404;-68
2021/07/04 09:22:11;;;;;;;5.60;5.10;;;28.10;94.60;;;;;;5114314;28;20440;-67
2021/07/04 09:24:42;;;;;;;4.90;4.50;;;28.10;94.80;;;;;;5115816;27;20393;-69
2021/07/04 09:27:12;;;;;;;5.40;4.97;;;28.20;95.30;;;;;;5114573;28;20429;-66
2021/07/04 09:29:48;;;;;;;5.40;4.90;;;28.20;94.50;;;;;;5115588;28;20980;-68
2021/07/04 09:32:25;;;;;;;5.77;5.20;;;28.30;95.20;;;;;;5115518;28;20427;-66
2021/07/04 09:35:11;;;;;;;8.27;5.13;;;28.30;95.80;;;;;;5114067;28;20423;-69
2021/07/04 09:37:44;;;;;;;6.20;5.60;;;28.40;95.80;;;;;;5115372;28;20464;-66
2021/07/04 09:40:23;;;;;;;5.60;5.10;;;28.50;94.60;;;;;;5115350;28;20817;-69
2021/07/04 09:42:53;;;;;;;5.47;4.97;;;28.50;92.80;;;;;;5115309;28;20397;-66
2021/07/04 09:45:20;;;;;;;5.43;4.90;;;28.60;92.30;;;;;;5115337;28;20506;-67
2021/07/04 09:47:57;;;;;;;6.20;4.83;;;28.60;92.00;;;;;;5114441;28;20409;-66
2021/07/04 09:50:23;;;;;;;4.47;4.10;;;28.60;92.00;;;;;;5115120;28;20420;-67
2021/07/04 09:52:57;;;;;;;5.60;5.10;;;28.70;92.00;;;;;;5115103;28;20784;-66
2021/07/04 09:55:23;;;;;;;5.60;5.10;;;28.70;91.90;;;;;;5127618;27;20524;-67
2021/07/04 09:57:55;;;;;;;5.70;5.20;;;28.80;92.50;;;;;;5135512;27;20469;-69
2021/07/04 10:00:22;;;;;;;5.73;5.23;;;28.80;91.90;;;;;;5135339;27;20229;-68
2021/07/04 10:03:06;;;;;;;5.30;4.80;;;28.90;91.80;;;;;;5135483;27;20501;-69
2021/07/04 10:05:32;;;;;;;4.93;4.50;;;28.90;91.90;;;;;;5135419;27;20432;-69
2021/07/04 10:07:58;;;;;;;5.47;4.63;;;28.90;91.30;;;;;;5135356;27;20397;-66
2021/07/04 10:10:23;;;;;;;6.37;5.77;;;29.10;91.70;;;;;;5135389;27;20921;-67
2021/07/04 10:12:49;;;;;;;5.67;5.17;;;29.10;91.60;;;;;;5135286;27;20164;-67
2021/07/04 10:15:15;;;;;;;5.90;4.90;;;29.10;91.70;;;;;;5116660;27;20193;-66
2021/07/04 10:17:42;;;;;;;5.30;4.87;;;29.20;91.30;;;;;;5116731;27;20254;-69
2021/07/04 10:20:09;;;;;;;4.80;4.40;;;29.20;91.00;;;;;;5135030;27;20290;-69
2021/07/04 10:22:37;;;;;;;5.40;4.90;;;29.20;90.70;;;;;;5135051;27;20402;-69
2021/07/04 10:25:07;;;;;;;4.80;4.40;;;29.30;89.80;;;;;;5134963;27;20780;-70
2021/07/04 10:27:39;;;;;;;5.03;4.30;;;29.40;89.80;;;;;;5135221;27;20477;-69
2021/07/04 10:30:06;;;;;;;4.83;4.43;;;29.40;89.10;;;;;;5134943;27;20430;-66
2021/07/04 10:32:32;;;;;;;4.70;4.30;;;29.40;89.40;;;;;;5135024;27;20895;-66
2021/07/04 10:35:09;;;;;;;4.40;4.00;;;29.40;89.30;;;;;;5134899;27;20398;-68
2021/07/04 10:37:39;;;;;;;4.73;4.33;;;29.40;88.30;;;;;;5116423;27;20282;-66
2021/07/04 10:40:19;;;;;;;5.13;4.37;;;29.40;89.20;;;;;;5134678;27;20433;-69
2021/07/04 10:42:45;;;;;;;4.60;4.20;;;29.50;87.50;;;;;;5134766;27;20402;-68
2021/07/04 10:45:40;;;;;;;4.20;3.80;;;29.50;87.70;;;;;;5134719;27;20446;-68
2021/07/04 10:48:24;;;;;;;4.97;3.93;;;29.50;86.60;;;;;;5113416;27;20421;-66
2021/07/04 10:51:10;;;;;;;4.70;4.30;;;29.50;86.50;;;;;;5116153;27;20472;-66
2021/07/04 10:53:42;;;;;;;4.73;4.33;;;29.50;86.50;;;;;;5134732;27;20402;-66
2021/07/04 10:56:36;;;;;;;6.47;4.73;;;29.40;86.20;;;;;;5134715;28;20693;-69
2021/07/04 10:59:14;;;;;;;3.83;3.50;;;29.40;86.10;;;;;;5138891;27;20411;-68
2021/07/04 11:01:56;;;;;;;4.53;4.10;;;29.40;86.00;;;;;;5141908;27;20449;-68
2021/07/04 11:04:28;;;;;;;4.63;4.23;;;29.40;87.10;;;;;;5141561;27;20482;-69
2021/07/04 11:07:01;;;;;;;5.33;4.70;;;29.40;85.90;;;;;;5141937;27;20437;-69
2021/07/04 11:09:52;;;;;;;4.97;4.50;;;29.40;86.50;;;;;;5141482;27;20777;-66
2021/07/04 11:12:31;;;;;;;5.00;4.50;;;29.40;87.50;;;;;;5141488;27;20441;-66
2021/07/04 11:15:13;;;;;;;4.97;4.47;;;29.40;86.50;;;;;;5122929;27;20454;-69
2021/07/04 11:18:02;;;;;;;5.03;4.63;;;29.40;87.00;;;;;;5141387;27;21064;-68
2021/07/04 11:20:40;;;;;;;4.80;4.30;;;29.50;86.40;;;;;;5141536;27;21022;-69
2021/07/04 11:23:16;;;;;;;4.63;4.20;;;29.50;86.50;;;;;;5122846;27;20422;-67
2021/07/04 11:25:43;;;;;;;4.73;4.33;;;29.50;85.70;;;;;;5122825;27;20451;-69
2021/07/04 11:28:31;;;;;;;5.77;4.90;;;29.50;86.50;;;;;;5141137;27;20417;-67
2021/07/04 11:31:01;;;;;;;4.23;3.87;;;29.60;85.00;;;;;;5141403;27;20450;-67
2021/07/04 11:33:40;;;;;;;5.30;4.80;;;29.50;85.10;;;;;;5141216;27;20402;-66
2021/07/04 11:36:09;;;;;;;5.10;4.67;;;29.50;84.30;;;;;;5140908;27;20538;-69
2021/07/04 11:38:44;;;;;;;4.83;4.23;;;29.40;84.30;;;;;;5141226;27;20776;-67
2021/07/04 11:41:14;;;;;;;5.23;4.13;;;29.40;84.40;;;;;;5122998;27;20569;-68
2021/07/04 11:43:41;;;;;;;5.00;4.60;;;29.40;85.20;;;;;;5141443;27;20457;-66
2021/07/04 11:46:13;;;;;;;4.77;4.37;;;29.40;84.60;;;;;;5141206;27;20451;-66
2021/07/04 11:49:17;;;;;;;4.57;4.07;;;29.40;84.20;;;;;;5122599;27;20481;-66
2021/07/04 11:51:44;;;;;;;4.77;4.37;;;29.40;83.10;;;;;;5067129;27;20457;-67
2021/07/04 11:54:12;;;;;;;4.53;4.13;;;29.50;84.00;;;;;;5122331;27;20431;-68
2021/07/04 11:56:39;;;;;;;5.13;4.63;;;29.50;82.70;;;;;;5141369;27;20469;-69
2021/07/04 11:59:21;;;;;;;6.00;4.13;;;29.50;83.00;;;;;;5140967;27;20808;-69
2021/07/04 12:01:49;;;;;;;3.77;3.47;;;29.50;83.60;;;;;;5122704;27;20475;-69
2021/07/04 12:04:17;;;;;;;9.10;3.90;;;29.60;83.30;;;;;;5141003;27;20410;-67
2021/07/04 12:07:10;;;;;;;5.07;4.27;;;29.60;82.90;;;;;;5141345;27;20449;-68
2021/07/04 12:09:51;;;;;;;5.23;4.37;;;29.60;82.60;;;;;;5135240;27;20767;-66
2021/07/04 12:12:21;;;;;;;4.20;3.90;;;29.60;83.20;;;;;;5137659;27;20454;-66
2021/07/04 12:14:49;;;;;;;5.40;4.87;;;29.60;83.60;;;;;;5137568;27;20391;-66
2021/07/04 12:17:22;;;;;;;4.93;4.50;;;29.60;83.20;;;;;;5137449;27;20598;-66
2021/07/04 12:20:11;;;;;;;4.73;4.33;;;29.70;83.00;;;;;;5137439;27;20874;-69
2021/07/04 12:22:48;;;;;;;7.07;5.10;;;29.70;83.10;;;;;;5137480;27;20447;-67
2021/07/04 12:25:16;;;;;;;5.07;4.17;;;29.70;84.10;;;;;;5137293;27;20437;-67
2021/07/04 12:27:53;;;;;;;5.93;5.20;;;29.80;83.30;;;;;;5137474;27;20769;-69
2021/07/04 12:30:22;;;;;;;4.80;4.40;;;29.80;83.20;;;;;;5118866;27;20841;-68
2021/07/04 12:33:09;;;;;;;5.23;4.77;;;29.80;82.50;;;;;;5137223;27;20428;-69
2021/07/04 12:35:34;;;;;;;5.30;4.40;;;29.70;82.20;;;;;;5137351;27;20521;-70
2021/07/04 12:38:04;;;;;;;5.10;4.60;;;29.70;83.40;;;;;;5137114;27;20478;-66
2021/07/04 12:40:33;;;;;;;5.20;4.70;;;29.70;84.10;;;;;;5137149;27;20186;-69
2021/07/04 12:43:09;;;;;;;5.43;4.93;;;29.60;84.20;;;;;;5137044;27;20510;-66
2021/07/04 12:45:40;;;;;;;5.63;4.80;;;29.60;84.70;;;;;;5137161;27;20949;-66
2021/07/04 12:48:07;;;;;;;4.73;4.33;;;29.70;83.30;;;;;;5136994;27;20892;-69
2021/07/04 12:50:42;;;;;;;4.50;4.10;;;29.70;82.20;;;;;;5137160;27;20437;-68